CYPH

Inukjuak Airport

Inukjuak, Quebec, Canada
METAR CYPH 170531Z AUTO 29018KT FEW013 OVC023 M15/M17 A2982 RMK WX MISG VIS MISG PCPN MISG SLP103
Observed Flight Rules
Dec-17 @ 05:31 UTC (36 minutes ago)
Wind Clouds
290° at 18 knots
  • Few at 1,300' AGL
  • Overcast at 2,300' AGL
Temperatures Readings
Current -15°C / 5°F
Dewpoint -17°C / 1°F
Humidity 85%
Altimeter 29.82" Hg
Pressure 1010.3 hPa
Elevation 3
METAR CYPH 170531Z AUTO 29018KT FEW013 OVC023 M15/M17 A2982 RMK WX MISG VIS MISG PCPN MISG SLP103
Observed Flight Rules
Dec-17 @ 05:31 UTC
(36 minutes ago)
Wind
290° at 18 knots
Clouds
  • Few at 1,300' AGL
  • Overcast at 2,300' AGL
Temperature Dewpoint
-15°C / 5°F -17°C / 1°F
Humidity Altimeter Pressure
85% 29.82" Hg 1010.3 hPa